sensor_id;sensor_type;location;lat;lon;timestamp;pressure;altitude;pressure_sealevel;temperature;humidity
17505;BME280;8870;50.950;11.762;2023-03-14T00:04:30;96281.28;;;9.61;100.00
17505;BME280;8870;50.950;11.762;2023-03-14T00:09:49;96271.34;;;9.55;100.00
17505;BME280;8870;50.950;11.762;2023-03-14T00:15:21;96274.66;;;9.50;100.00
17505;BME280;8870;50.950;11.762;2023-03-14T00:20:41;96289.13;;;9.49;100.00
17505;BME280;8870;50.950;11.762;2023-03-14T00:26:15;96280.44;;;9.47;100.00
17505;BME280;8870;50.950;11.762;2023-03-14T00:31:34;96259.56;;;9.49;100.00
17505;BME280;8870;50.950;11.762;2023-03-14T00:37:08;96256.25;;;9.47;100.00
17505;BME280;8870;50.950;11.762;2023-03-14T00:42:39;96255.44;;;9.47;100.00
17505;BME280;8870;50.950;11.762;2023-03-14T00:47:57;96274.47;;;9.45;100.00
17505;BME280;8870;50.950;11.762;2023-03-14T00:53:32;96281.91;;;9.43;100.00
17505;BME280;8870;50.950;11.762;2023-03-14T00:58:54;96258.94;;;9.54;100.00
17505;BME280;8870;50.950;11.762;2023-03-14T01:04:24;96260.59;;;9.62;100.00
17505;BME280;8870;50.950;11.762;2023-03-14T01:09:45;96271.75;;;9.65;100.00
17505;BME280;8870;50.950;11.762;2023-03-14T01:15:17;96263.28;;;9.62;100.00
17505;BME280;8870;50.950;11.762;2023-03-14T01:20:37;96295.94;;;9.65;100.00
17505;BME280;8870;50.950;11.762;2023-03-14T01:26:12;96298.22;;;9.62;100.00
17505;BME280;8870;50.950;11.762;2023-03-14T01:31:31;96303.59;;;9.62;100.00
17505;BME280;8870;50.950;11.762;2023-03-14T01:37:01;96278.59;;;9.68;100.00
17505;BME280;8870;50.950;11.762;2023-03-14T01:42:24;96265.94;;;9.75;100.00
17505;BME280;8870;50.950;11.762;2023-03-14T01:47:56;96241.53;;;9.77;100.00
17505;BME280;8870;50.950;11.762;2023-03-14T01:53:14;96234.06;;;9.85;100.00
17505;BME280;8870;50.950;11.762;2023-03-14T01:58:50;96213.59;;;9.84;100.00
17505;BME280;8870;50.950;11.762;2023-03-14T02:04:11;96207.81;;;9.87;100.00
17505;BME280;8870;50.950;11.762;2023-03-14T02:09:43;96185.66;;;9.92;100.00
17505;BME280;8870;50.950;11.762;2023-03-14T02:15:09;96165.34;;;10.03;100.00
17505;BME280;8870;50.950;11.762;2023-03-14T02:20:48;96150.03;;;9.97;100.00
17505;BME280;8870;50.950;11.762;2023-03-14T02:26:13;96157.28;;;10.03;100.00
17505;BME280;8870;50.950;11.762;2023-03-14T02:31:48;96139.50;;;10.02;100.00
17505;BME280;8870;50.950;11.762;2023-03-14T02:37:07;96139.84;;;10.12;100.00
17505;BME280;8870;50.950;11.762;2023-03-14T02:42:38;96139.44;;;10.15;100.00
17505;BME280;8870;50.950;11.762;2023-03-14T02:48:02;96147.53;;;10.09;100.00
17505;BME280;8870;50.950;11.762;2023-03-14T02:53:37;96143.56;;;10.11;100.00
17505;BME280;8870;50.950;11.762;2023-03-14T02:58:58;96172.75;;;10.14;100.00
17505;BME280;8870;50.950;11.762;2023-03-14T03:04:36;96171.28;;;10.12;100.00
17505;BME280;8870;50.950;11.762;2023-03-14T03:09:55;96158.25;;;10.15;100.00
17505;BME280;8870;50.950;11.762;2023-03-14T03:15:27;96130.75;;;10.13;100.00
17505;BME280;8870;50.950;11.762;2023-03-14T03:20:49;96111.47;;;10.16;100.00
17505;BME280;8870;50.950;11.762;2023-03-14T03:26:19;96092.69;;;10.10;100.00
17505;BME280;8870;50.950;11.762;2023-03-14T03:31:40;96082.34;;;10.07;100.00
17505;BME280;8870;50.950;11.762;2023-03-14T03:37:14;96079.94;;;9.98;100.00
17505;BME280;8870;50.950;11.762;2023-03-14T03:42:35;96077.19;;;10.05;100.00
17505;BME280;8870;50.950;11.762;2023-03-14T03:48:06;96081.69;;;10.11;100.00
17505;BME280;8870;50.950;11.762;2023-03-14T03:53:27;96121.66;;;10.08;100.00
17505;BME280;8870;50.950;11.762;2023-03-14T03:59:04;96097.22;;;10.09;100.00
17505;BME280;8870;50.950;11.762;2023-03-14T04:04:24;96085.25;;;10.05;100.00
17505;BME280;8870;50.950;11.762;2023-03-14T04:09:57;96081.34;;;10.01;100.00
17505;BME280;8870;50.950;11.762;2023-03-14T04:15:22;96077.78;;;10.07;100.00
17505;BME280;8870;50.950;11.762;2023-03-14T04:21:00;96086.50;;;10.02;100.00
17505;BME280;8870;50.950;11.762;2023-03-14T04:32:03;96043.97;;;9.93;100.00
17505;BME280;8870;50.950;11.762;2023-03-14T04:37:21;96049.97;;;9.88;100.00
17505;BME280;8870;50.950;11.762;2023-03-14T04:42:58;96079.34;;;9.90;100.00
17505;BME280;8870;50.950;11.762;2023-03-14T04:48:25;96029.75;;;9.79;100.00
17505;BME280;8870;50.950;11.762;2023-03-14T04:53:59;96026.75;;;9.94;100.00
17505;BME280;8870;50.950;11.762;2023-03-14T04:59:20;96015.06;;;9.81;100.00
17505;BME280;8870;50.950;11.762;2023-03-14T05:05:17;96022.06;;;9.82;100.00
17505;BME280;8870;50.950;11.762;2023-03-14T05:10:41;96023.91;;;9.89;100.00
17505;BME280;8870;50.950;11.762;2023-03-14T05:16:36;95997.28;;;9.80;100.00
17505;BME280;8870;50.950;11.762;2023-03-14T05:22:03;96014.63;;;9.84;100.00
17505;BME280;8870;50.950;11.762;2023-03-14T05:27:50;96010.28;;;9.83;100.00
17505;BME280;8870;50.950;11.762;2023-03-14T05:33:26;96012.81;;;9.78;100.00
17505;BME280;8870;50.950;11.762;2023-03-14T05:39:17;96007.16;;;9.86;100.00
17505;BME280;8870;50.950;11.762;2023-03-14T05:44:53;96020.78;;;9.92;100.00
17505;BME280;8870;50.950;11.762;2023-03-14T05:50:47;96035.28;;;9.91;100.00
17505;BME280;8870;50.950;11.762;2023-03-14T05:56:27;96013.91;;;9.96;100.00
17505;BME280;8870;50.950;11.762;2023-03-14T06:02:14;96025.63;;;9.76;100.00
17505;BME280;8870;50.950;11.762;2023-03-14T06:07:50;96046.31;;;9.76;100.00
17505;BME280;8870;50.950;11.762;2023-03-14T06:13:16;96031.25;;;9.68;100.00
17505;BME280;8870;50.950;11.762;2023-03-14T06:18:34;96048.84;;;9.64;100.00
17505;BME280;8870;50.950;11.762;2023-03-14T06:24:11;96050.88;;;9.75;100.00
17505;BME280;8870;50.950;11.762;2023-03-14T06:29:30;96043.84;;;9.74;100.00
17505;BME280;8870;50.950;11.762;2023-03-14T06:35:03;96059.97;;;9.74;100.00
17505;BME280;8870;50.950;11.762;2023-03-14T06:40:24;96049.59;;;9.78;100.00
17505;BME280;8870;50.950;11.762;2023-03-14T06:46:00;96039.69;;;9.78;100.00
17505;BME280;8870;50.950;11.762;2023-03-14T06:51:19;96033.63;;;9.90;100.00
17505;BME280;8870;50.950;11.762;2023-03-14T06:56:54;96026.16;;;9.92;100.00
17505;BME280;8870;50.950;11.762;2023-03-14T07:02:13;96005.47;;;9.92;100.00
17505;BME280;8870;50.950;11.762;2023-03-14T07:08:08;96007.13;;;9.93;100.00
17505;BME280;8870;50.950;11.762;2023-03-14T07:13:30;96000.47;;;9.96;100.00
17505;BME280;8870;50.950;11.762;2023-03-14T07:19:02;96005.44;;;9.99;100.00
17505;BME280;8870;50.950;11.762;2023-03-14T07:24:21;96007.25;;;10.05;100.00
17505;BME280;8870;50.950;11.762;2023-03-14T07:29:55;95999.34;;;10.10;100.00
17505;BME280;8870;50.950;11.762;2023-03-14T07:35:14;96015.81;;;10.21;100.00
17505;BME280;8870;50.950;11.762;2023-03-14T07:40:46;96005.56;;;10.11;100.00
17505;BME280;8870;50.950;11.762;2023-03-14T07:46:09;96022.13;;;10.08;100.00
17505;BME280;8870;50.950;11.762;2023-03-14T07:51:42;96020.88;;;10.10;100.00
17505;BME280;8870;50.950;11.762;2023-03-14T07:57:01;96014.63;;;10.16;100.00
17505;BME280;8870;50.950;11.762;2023-03-14T08:02:35;96023.47;;;10.24;100.00
17505;BME280;8870;50.950;11.762;2023-03-14T08:08:07;96025.06;;;10.38;100.00
17505;BME280;8870;50.950;11.762;2023-03-14T08:13:25;96018.78;;;10.44;100.00
17505;BME280;8870;50.950;11.762;2023-03-14T08:18:58;96017.91;;;10.51;100.00
17505;BME280;8870;50.950;11.762;2023-03-14T08:24:17;96014.31;;;10.57;100.00
17505;BME280;8870;50.950;11.762;2023-03-14T08:29:48;96015.53;;;10.61;100.00
17505;BME280;8870;50.950;11.762;2023-03-14T08:35:10;96031.63;;;10.68;100.00
17505;BME280;8870;50.950;11.762;2023-03-14T08:40:41;96045.84;;;10.75;100.00
17505;BME280;8870;50.950;11.762;2023-03-14T08:46:00;96039.59;;;10.81;100.00
17505;BME280;8870;50.950;11.762;2023-03-14T08:51:34;96040.22;;;10.76;100.00
17505;BME280;8870;50.950;11.762;2023-03-14T08:56:53;96043.09;;;10.82;100.00
17505;BME280;8870;50.950;11.762;2023-03-14T09:02:25;96048.19;;;10.90;100.00
17505;BME280;8870;50.950;11.762;2023-03-14T09:07:59;96046.78;;;11.06;100.00
17505;BME280;8870;50.950;11.762;2023-03-14T09:13:18;96063.34;;;11.09;100.00
17505;BME280;8870;50.950;11.762;2023-03-14T09:18:50;96064.41;;;11.08;100.00
17505;BME280;8870;50.950;11.762;2023-03-14T09:24:11;96052.50;;;11.16;100.00
17505;BME280;8870;50.950;11.762;2023-03-14T09:29:43;96050.56;;;11.23;100.00
17505;BME280;8870;50.950;11.762;2023-03-14T09:35:01;96033.28;;;11.31;100.00
17505;BME280;8870;50.950;11.762;2023-03-14T09:40:38;96034.75;;;11.27;100.00
17505;BME280;8870;50.950;11.762;2023-03-14T09:46:00;96041.13;;;11.33;100.00
17505;BME280;8870;50.950;11.762;2023-03-14T09:51:33;96024.28;;;11.37;100.00
17505;BME280;8870;50.950;11.762;2023-03-14T09:56:54;96030.34;;;11.51;100.00
17505;BME280;8870;50.950;11.762;2023-03-14T10:02:32;96033.84;;;11.52;100.00
17505;BME280;8870;50.950;11.762;2023-03-14T10:07:52;96031.81;;;11.66;100.00
17505;BME280;8870;50.950;11.762;2023-03-14T10:13:17;96046.69;;;11.87;100.00
17505;BME280;8870;50.950;11.762;2023-03-14T10:18:50;96048.78;;;11.85;100.00
17505;BME280;8870;50.950;11.762;2023-03-14T10:24:20;96047.91;;;11.72;100.00
17505;BME280;8870;50.950;11.762;2023-03-14T10:29:56;96047.16;;;11.65;100.00
17505;BME280;8870;50.950;11.762;2023-03-14T10:35:20;96042.03;;;11.64;100.00
17505;BME280;8870;50.950;11.762;2023-03-14T10:40:53;96050.38;;;11.55;100.00
17505;BME280;8870;50.950;11.762;2023-03-14T10:46:17;96075.94;;;11.53;100.00
17505;BME280;8870;50.950;11.762;2023-03-14T10:52:17;96078.94;;;11.45;100.00
17505;BME280;8870;50.950;11.762;2023-03-14T10:57:58;96089.13;;;11.43;100.00
17505;BME280;8870;50.950;11.762;2023-03-14T11:09:20;96080.56;;;11.27;100.00
17505;BME280;8870;50.950;11.762;2023-03-14T11:14:51;96078.56;;;11.60;100.00
17505;BME280;8870;50.950;11.762;2023-03-14T11:26:19;96082.72;;;11.93;100.00
17505;BME280;8870;50.950;11.762;2023-03-14T11:31:40;96061.25;;;12.16;100.00
17505;BME280;8870;50.950;11.762;2023-03-14T13:02:20;95999.81;;;13.02;100.00
17505;BME280;8870;50.950;11.762;2023-03-14T13:08:05;95981.72;;;12.90;100.00
17505;BME280;8870;50.950;11.762;2023-03-14T13:13:25;95989.84;;;13.02;100.00
17505;BME280;8870;50.950;11.762;2023-03-14T13:19:04;95989.81;;;13.14;100.00
17505;BME280;8870;50.950;11.762;2023-03-14T13:24:33;95996.78;;;13.10;100.00
17505;BME280;8870;50.950;11.762;2023-03-14T13:30:15;95989.13;;;13.07;100.00
17505;BME280;8870;50.950;11.762;2023-03-14T13:35:43;95985.47;;;12.89;100.00
17505;BME280;8870;50.950;11.762;2023-03-14T13:41:15;95983.97;;;12.93;100.00
17505;BME280;8870;50.950;11.762;2023-03-14T13:46:34;95987.97;;;12.91;100.00
17505;BME280;8870;50.950;11.762;2023-03-14T13:52:27;95991.72;;;12.66;100.00
17505;BME280;8870;50.950;11.762;2023-03-14T13:57:48;96002.75;;;12.53;100.00
17505;BME280;8870;50.950;11.762;2023-03-14T14:03:20;95985.81;;;12.33;100.00
17505;BME280;8870;50.950;11.762;2023-03-14T14:08:56;96001.41;;;12.20;100.00
17505;BME280;8870;50.950;11.762;2023-03-14T14:14:18;96002.94;;;12.15;100.00
17505;BME280;8870;50.950;11.762;2023-03-14T14:19:55;96013.69;;;12.04;100.00
17505;BME280;8870;50.950;11.762;2023-03-14T14:25:17;96029.91;;;12.04;100.00
17505;BME280;8870;50.950;11.762;2023-03-14T14:31:03;96040.09;;;11.83;100.00
17505;BME280;8870;50.950;11.762;2023-03-14T14:36:24;96051.22;;;11.37;100.00
17505;BME280;8870;50.950;11.762;2023-03-14T14:41:59;96067.28;;;11.07;100.00
17505;BME280;8870;50.950;11.762;2023-03-14T14:47:20;96094.94;;;10.77;100.00
17505;BME280;8870;50.950;11.762;2023-03-14T14:52:56;96114.63;;;10.45;100.00
17505;BME280;8870;50.950;11.762;2023-03-14T14:58:24;96161.16;;;10.07;100.00
17505;BME280;8870;50.950;11.762;2023-03-14T15:03:56;96252.34;;;7.85;100.00
17505;BME280;8870;50.950;11.762;2023-03-14T15:09:16;96331.41;;;6.44;100.00
17505;BME280;8870;50.950;11.762;2023-03-14T15:14:51;96355.56;;;6.36;100.00
17505;BME280;8870;50.950;11.762;2023-03-14T15:20:16;96379.16;;;6.17;100.00
17505;BME280;8870;50.950;11.762;2023-03-14T15:25:49;96425.72;;;6.08;100.00
17505;BME280;8870;50.950;11.762;2023-03-14T15:31:11;96486.72;;;6.05;100.00
17505;BME280;8870;50.950;11.762;2023-03-14T15:36:43;96495.75;;;6.04;100.00
17505;BME280;8870;50.950;11.762;2023-03-14T15:42:01;96525.09;;;5.89;100.00
17505;BME280;8870;50.950;11.762;2023-03-14T15:47:36;96506.97;;;5.52;100.00
17505;BME280;8870;50.950;11.762;2023-03-14T15:52:54;96531.22;;;5.11;100.00
17505;BME280;8870;50.950;11.762;2023-03-14T15:58:25;96555.00;;;4.81;100.00
17505;BME280;8870;50.950;11.762;2023-03-14T16:03:54;96594.56;;;4.53;100.00
17505;BME280;8870;50.950;11.762;2023-03-14T16:09:26;96640.06;;;4.35;100.00
17505;BME280;8870;50.950;11.762;2023-03-14T16:14:47;96684.50;;;4.09;100.00
17505;BME280;8870;50.950;11.762;2023-03-14T16:20:21;96731.22;;;3.79;100.00
17505;BME280;8870;50.950;11.762;2023-03-14T16:25:56;96749.94;;;3.61;100.00
17505;BME280;8870;50.950;11.762;2023-03-14T16:31:27;96762.59;;;3.32;100.00
17505;BME280;8870;50.950;11.762;2023-03-14T16:36:48;96775.00;;;3.23;100.00
17505;BME280;8870;50.950;11.762;2023-03-14T16:42:21;96815.69;;;3.16;100.00
17505;BME280;8870;50.950;11.762;2023-03-14T16:47:40;96843.44;;;3.13;100.00
17505;BME280;8870;50.950;11.762;2023-03-14T16:53:15;96846.94;;;3.14;100.00
17505;BME280;8870;50.950;11.762;2023-03-14T16:58:54;96877.03;;;3.14;100.00
17505;BME280;8870;50.950;11.762;2023-03-14T17:04:33;96919.00;;;3.20;100.00
17505;BME280;8870;50.950;11.762;2023-03-14T17:10:09;96939.19;;;3.23;100.00
17505;BME280;8870;50.950;11.762;2023-03-14T17:15:28;96946.47;;;3.21;100.00
17505;BME280;8870;50.950;11.762;2023-03-14T17:21:00;96962.31;;;3.13;100.00
17505;BME280;8870;50.950;11.762;2023-03-14T17:26:23;96980.41;;;3.09;100.00
17505;BME280;8870;50.950;11.762;2023-03-14T17:31:59;96989.84;;;3.03;100.00
17505;BME280;8870;50.950;11.762;2023-03-14T17:37:25;97006.50;;;3.05;100.00
17505;BME280;8870;50.950;11.762;2023-03-14T17:43:03;97021.63;;;3.05;100.00
17505;BME280;8870;50.950;11.762;2023-03-14T17:48:22;97042.06;;;3.04;100.00
17505;BME280;8870;50.950;11.762;2023-03-14T17:53:56;97058.88;;;3.05;100.00
17505;BME280;8870;50.950;11.762;2023-03-14T17:59:22;97084.63;;;3.04;100.00
17505;BME280;8870;50.950;11.762;2023-03-14T18:04:59;97089.97;;;3.04;100.00
17505;BME280;8870;50.950;11.762;2023-03-14T18:21:38;97139.13;;;3.38;100.00
17505;BME280;8870;50.950;11.762;2023-03-14T18:27:13;97150.47;;;3.40;100.00
17505;BME280;8870;50.950;11.762;2023-03-14T18:32:32;97161.75;;;3.52;100.00
17505;BME280;8870;50.950;11.762;2023-03-14T18:38:15;97162.88;;;3.49;100.00
17505;BME280;8870;50.950;11.762;2023-03-14T18:43:33;97174.31;;;3.60;100.00
17505;BME280;8870;50.950;11.762;2023-03-14T18:49:04;97204.78;;;3.47;100.00
17505;BME280;8870;50.950;11.762;2023-03-14T18:54:26;97203.28;;;3.45;100.00
17505;BME280;8870;50.950;11.762;2023-03-14T19:00:00;97211.13;;;3.36;100.00
17505;BME280;8870;50.950;11.762;2023-03-14T19:05:28;97232.75;;;3.23;100.00
17505;BME280;8870;50.950;11.762;2023-03-14T19:11:08;97241.59;;;3.14;100.00
17505;BME280;8870;50.950;11.762;2023-03-14T19:16:26;97251.72;;;3.11;100.00
17505;BME280;8870;50.950;11.762;2023-03-14T19:21:57;97252.97;;;2.97;100.00
17505;BME280;8870;50.950;11.762;2023-03-14T19:27:18;97264.03;;;2.92;100.00
17505;BME280;8870;50.950;11.762;2023-03-14T19:32:49;97280.28;;;2.79;100.00
17505;BME280;8870;50.950;11.762;2023-03-14T19:38:08;97286.44;;;2.80;100.00
17505;BME280;8870;50.950;11.762;2023-03-14T19:43:43;97305.47;;;2.55;100.00
17505;BME280;8870;50.950;11.762;2023-03-14T19:49:03;97313.28;;;2.47;100.00
17505;BME280;8870;50.950;11.762;2023-03-14T19:54:35;97323.22;;;2.55;100.00
17505;BME280;8870;50.950;11.762;2023-03-14T19:59:59;97340.56;;;2.49;100.00
17505;BME280;8870;50.950;11.762;2023-03-14T20:05:32;97354.56;;;2.51;100.00
17505;BME280;8870;50.950;11.762;2023-03-14T20:10:50;97364.25;;;2.62;100.00
17505;BME280;8870;50.950;11.762;2023-03-14T20:16:24;97381.59;;;2.56;100.00
17505;BME280;8870;50.950;11.762;2023-03-14T20:21:42;97389.97;;;2.42;100.00
17505;BME280;8870;50.950;11.762;2023-03-14T20:27:14;97422.53;;;2.34;100.00
17505;BME280;8870;50.950;11.762;2023-03-14T20:32:35;97420.63;;;2.46;100.00
17505;BME280;8870;50.950;11.762;2023-03-14T20:38:07;97428.97;;;2.41;100.00
17505;BME280;8870;50.950;11.762;2023-03-14T20:43:26;97447.56;;;2.72;100.00
17505;BME280;8870;50.950;11.762;2023-03-14T20:49:01;97455.03;;;2.47;100.00
17505;BME280;8870;50.950;11.762;2023-03-14T20:54:20;97460.56;;;2.66;100.00
17505;BME280;8870;50.950;11.762;2023-03-14T20:59:51;97459.28;;;2.60;100.00
17505;BME280;8870;50.950;11.762;2023-03-14T21:05:22;97462.09;;;2.58;100.00
17505;BME280;8870;50.950;11.762;2023-03-14T21:16:06;97465.72;;;2.67;100.00
17505;BME280;8870;50.950;11.762;2023-03-14T21:21:41;97459.69;;;2.65;100.00
17505;BME280;8870;50.950;11.762;2023-03-14T21:27:07;97459.88;;;2.73;100.00
17505;BME280;8870;50.950;11.762;2023-03-14T21:32:43;97477.28;;;2.87;100.00
17505;BME280;8870;50.950;11.762;2023-03-14T21:38:07;97484.84;;;2.82;100.00
17505;BME280;8870;50.950;11.762;2023-03-14T21:43:39;97497.06;;;3.04;100.00
17505;BME280;8870;50.950;11.762;2023-03-14T21:49:08;97503.38;;;3.13;100.00
17505;BME280;8870;50.950;11.762;2023-03-14T21:54:43;97512.59;;;2.99;100.00
17505;BME280;8870;50.950;11.762;2023-03-14T22:00:02;97528.47;;;2.80;100.00
17505;BME280;8870;50.950;11.762;2023-03-14T22:05:34;97533.19;;;2.97;100.00
17505;BME280;8870;50.950;11.762;2023-03-14T22:11:10;97551.03;;;2.85;100.00
17505;BME280;8870;50.950;11.762;2023-03-14T22:16:28;97544.31;;;3.22;100.00
17505;BME280;8870;50.950;11.762;2023-03-14T22:21:59;97557.66;;;2.91;100.00
17505;BME280;8870;50.950;11.762;2023-03-14T22:27:22;97569.00;;;2.93;100.00
17505;BME280;8870;50.950;11.762;2023-03-14T22:32:53;97576.09;;;2.83;100.00
17505;BME280;8870;50.950;11.762;2023-03-14T22:38:16;97580.84;;;2.79;100.00
17505;BME280;8870;50.950;11.762;2023-03-14T22:43:52;97591.59;;;2.77;100.00
17505;BME280;8870;50.950;11.762;2023-03-14T22:49:26;97596.50;;;2.72;100.00
17505;BME280;8870;50.950;11.762;2023-03-14T22:54:57;97607.84;;;2.74;100.00
17505;BME280;8870;50.950;11.762;2023-03-14T23:00:20;97612.00;;;2.67;100.00
17505;BME280;8870;50.950;11.762;2023-03-14T23:05:52;97614.94;;;2.64;100.00
17505;BME280;8870;50.950;11.762;2023-03-14T23:11:27;97627.53;;;2.62;100.00
17505;BME280;8870;50.950;11.762;2023-03-14T23:16:45;97631.41;;;2.58;100.00
17505;BME280;8870;50.950;11.762;2023-03-14T23:22:17;97638.47;;;2.47;100.00
17505;BME280;8870;50.950;11.762;2023-03-14T23:27:53;97644.50;;;2.50;100.00
17505;BME280;8870;50.950;11.762;2023-03-14T23:33:20;97634.72;;;2.29;100.00
